Time;durP1;ratioP1;P1;durP2;ratioP2;P2;SDS_P1;SDS_P2;PMS_P1;PMS_P2;Temp;Humidity;BMP_temperature;BMP_pressure;BME280_temperature;BME280_humidity;BME280_pressure;Samples;Min_cycle;Max_cycle;Signal;HPM_P1;HPM_P2
2022/12/03 00:00:26;;;;;;;1999.90;999.90;;;2.90;99.90;;;;;;5049365;28;20529;-67
2022/12/03 00:02:53;;;;;;;1999.90;999.90;;;2.90;99.90;;;;;;5050113;28;20542;-67
2022/12/03 00:05:19;;;;;;;1999.90;999.90;;;2.90;99.90;;;;;;5049485;28;20458;-67
2022/12/03 00:07:46;;;;;;;1999.90;999.90;;;2.90;99.90;;;;;;5050274;28;20448;-67
2022/12/03 00:10:13;;;;;;;1999.90;999.90;;;2.80;99.90;;;;;;5048977;28;20484;-67
2022/12/03 00:12:40;;;;;;;1999.90;999.90;;;2.90;99.90;;;;;;5049944;28;20455;-68
2022/12/03 00:15:10;;;;;;;1999.90;999.90;;;3.00;99.90;;;;;;5049497;28;20455;-67
2022/12/03 00:17:37;;;;;;;1999.90;999.90;;;3.00;99.90;;;;;;5049935;28;20447;-68
2022/12/03 00:20:04;;;;;;;1999.90;999.90;;;3.10;99.90;;;;;;5049349;28;20448;-67
2022/12/03 00:22:31;;;;;;;1999.90;999.90;;;3.10;99.90;;;;;;5049123;28;20452;-68
2022/12/03 00:24:58;;;;;;;1999.90;999.90;;;3.10;99.90;;;;;;5049589;28;20452;-67
2022/12/03 00:27:24;;;;;;;1999.90;999.90;;;3.10;99.90;;;;;;5049150;28;20803;-68
2022/12/03 00:29:51;;;;;;;1999.90;999.90;;;3.20;99.90;;;;;;5049361;28;20480;-67
2022/12/03 00:32:19;;;;;;;1999.90;999.90;;;3.30;99.90;;;;;;5048846;28;20458;-68
2022/12/03 00:34:46;;;;;;;1999.90;999.90;;;3.30;99.90;;;;;;5049331;28;20456;-68
2022/12/03 00:37:13;;;;;;;1999.90;999.90;;;3.30;99.90;;;;;;5037704;28;20946;-67
2022/12/03 00:39:40;;;;;;;1999.90;999.90;;;3.30;99.90;;;;;;5048651;28;20519;-67
2022/12/03 00:42:06;;;;;;;1999.90;999.90;;;3.40;99.90;;;;;;5029434;28;20485;-68
2022/12/03 00:44:34;;;;;;;1999.90;999.90;;;3.60;99.90;;;;;;5029327;28;20908;-68
2022/12/03 00:47:01;;;;;;;1999.90;999.90;;;3.70;99.90;;;;;;5029444;28;20965;-67
2022/12/03 00:49:29;;;;;;;1999.90;999.90;;;3.70;99.90;;;;;;5028095;28;21020;-68
2022/12/03 00:51:56;;;;;;;1999.90;999.90;;;3.70;99.90;;;;;;5029355;28;20465;-68
2022/12/03 00:54:23;;;;;;;1999.90;999.90;;;3.70;99.90;;;;;;5028554;28;20459;-68
2022/12/03 00:56:49;;;;;;;1999.90;999.90;;;3.70;99.90;;;;;;5029448;28;20452;-67
2022/12/03 00:59:16;;;;;;;1999.90;999.90;;;3.60;99.90;;;;;;5028361;28;20484;-68
2022/12/03 01:01:43;;;;;;;1999.90;999.90;;;3.60;99.90;;;;;;5029144;28;20473;-68
2022/12/03 01:04:10;;;;;;;1999.90;999.90;;;3.60;99.90;;;;;;5047969;28;20448;-67
2022/12/03 01:06:38;;;;;;;1999.90;999.90;;;3.60;99.90;;;;;;5045256;28;20503;-67
2022/12/03 01:09:05;;;;;;;1999.90;999.90;;;3.60;99.90;;;;;;5047994;28;20952;-68
2022/12/03 01:11:37;;;;;;;1999.90;999.90;;;3.80;99.90;;;;;;5041405;28;20491;-67
2022/12/03 01:14:04;;;;;;;1999.90;999.90;;;3.80;99.90;;;;;;5028960;28;20449;-67
2022/12/03 01:16:31;;;;;;;1999.90;999.90;;;3.80;99.90;;;;;;5028153;28;20915;-67
2022/12/03 01:18:57;;;;;;;1999.90;999.90;;;3.90;99.90;;;;;;5028503;28;20449;-67
2022/12/03 01:21:24;;;;;;;1999.90;999.90;;;3.90;99.90;;;;;;5028124;28;21174;-67
2022/12/03 01:23:52;;;;;;;1999.90;999.90;;;3.90;99.90;;;;;;5028535;28;20460;-66
2022/12/03 01:26:19;;;;;;;1999.90;999.90;;;4.00;99.90;;;;;;5028594;28;20455;-66
2022/12/03 01:28:46;;;;;;;1999.90;999.90;;;4.00;99.90;;;;;;5028287;28;20828;-67
2022/12/03 01:33:57;;;;;;;1999.90;999.90;;;4.00;99.90;;;;;;5046109;28;20537;-67
2022/12/03 01:36:24;;;;;;;1999.90;999.90;;;4.00;99.90;;;;;;5048113;28;20451;-66
2022/12/03 01:38:52;;;;;;;1999.90;999.90;;;3.90;99.90;;;;;;5048125;28;20447;-66
2022/12/03 01:41:22;;;;;;;1999.90;999.90;;;3.80;99.90;;;;;;5048234;28;20468;-67
2022/12/03 01:43:50;;;;;;;1999.90;999.90;;;3.80;99.90;;;;;;5048312;28;20451;-67
2022/12/03 01:46:21;;;;;;;1999.90;999.90;;;3.70;99.90;;;;;;5047895;28;20448;-67
2022/12/03 01:48:48;;;;;;;1999.90;999.90;;;3.80;99.90;;;;;;5048145;28;20444;-67
2022/12/03 01:51:16;;;;;;;1999.90;999.90;;;3.80;99.90;;;;;;5048504;28;20496;-67
2022/12/03 01:53:44;;;;;;;1999.90;999.90;;;3.80;99.90;;;;;;5048762;28;20502;-66
2022/12/03 01:56:15;;;;;;;1999.90;999.90;;;3.80;99.90;;;;;;5049309;28;20447;-67
2022/12/03 01:58:43;;;;;;;1999.90;999.90;;;3.80;99.90;;;;;;5049308;28;20459;-67
2022/12/03 02:01:13;;;;;;;1999.90;999.90;;;3.80;99.90;;;;;;5049481;28;20472;-67
2022/12/03 02:03:40;;;;;;;1999.90;999.90;;;3.80;99.90;;;;;;5049772;28;20501;-67
2022/12/03 02:06:15;;;;;;;1999.90;999.90;;;3.80;99.90;;;;;;5049378;28;20954;-67
2022/12/03 02:08:41;;;;;;;1999.90;999.90;;;3.80;99.90;;;;;;5049423;28;20447;-67
2022/12/03 02:11:14;;;;;;;1999.90;999.90;;;3.80;99.90;;;;;;5049110;28;21027;-66
2022/12/03 02:13:43;;;;;;;1999.90;999.90;;;3.70;99.90;;;;;;5049959;28;20453;-67
2022/12/03 02:16:10;;;;;;;1999.90;999.90;;;3.80;99.90;;;;;;5049452;28;20820;-67
2022/12/03 02:18:37;;;;;;;1999.90;999.90;;;3.90;99.90;;;;;;5049758;28;20444;-67
2022/12/03 02:21:12;;;;;;;1999.90;999.90;;;3.90;99.90;;;;;;5049478;28;20991;-67
2022/12/03 02:23:47;;;;;;;1999.90;999.90;;;3.90;99.90;;;;;;5049669;28;20446;-67
2022/12/03 02:26:15;;;;;;;1999.90;999.90;;;4.00;99.90;;;;;;5049741;28;20474;-68
2022/12/03 02:28:49;;;;;;;1999.90;999.90;;;3.90;99.90;;;;;;5049161;28;20439;-68
2022/12/03 02:31:16;;;;;;;1999.90;999.90;;;3.90;99.90;;;;;;5049585;28;20489;-68
2022/12/03 02:33:43;;;;;;;1999.90;999.90;;;3.90;99.90;;;;;;5049264;28;20448;-68
2022/12/03 02:36:11;;;;;;;1999.90;999.90;;;3.90;99.90;;;;;;5049281;28;20551;-66
2022/12/03 02:38:38;;;;;;;1999.90;999.90;;;3.90;99.90;;;;;;5048709;28;20969;-66
2022/12/03 02:41:08;;;;;;;1999.90;999.90;;;3.80;99.90;;;;;;5049351;28;20464;-68
2022/12/03 02:43:35;;;;;;;1999.90;999.90;;;3.80;99.90;;;;;;5049284;28;20444;-67
2022/12/03 02:46:05;;;;;;;1999.90;999.90;;;3.80;99.90;;;;;;5049479;28;20448;-67
2022/12/03 02:48:34;;;;;;;1999.90;999.90;;;3.80;99.90;;;;;;5048705;28;20550;-67
2022/12/03 02:51:05;;;;;;;1999.90;999.90;;;3.90;99.90;;;;;;5049155;28;20498;-67
2022/12/03 02:53:36;;;;;;;1999.90;999.90;;;3.90;99.90;;;;;;5049411;28;20447;-66
2022/12/03 02:56:05;;;;;;;1999.90;999.90;;;4.00;99.90;;;;;;5048954;28;20444;-67
2022/12/03 02:58:33;;;;;;;1999.90;999.90;;;4.00;99.90;;;;;;5048860;28;20443;-66
2022/12/03 03:01:03;;;;;;;1999.90;999.90;;;3.90;99.90;;;;;;5048920;28;20460;-66
2022/12/03 03:03:32;;;;;;;1999.90;999.90;;;3.90;99.90;;;;;;5050900;28;20444;-67
2022/12/03 03:06:01;;;;;;;1999.90;999.90;;;3.80;99.90;;;;;;5052578;28;20448;-66
2022/12/03 03:08:30;;;;;;;1999.90;999.90;;;3.80;99.90;;;;;;5052476;28;20458;-67
2022/12/03 03:10:59;;;;;;;1999.90;999.90;;;3.70;99.90;;;;;;5052071;28;20494;-66
2022/12/03 03:13:26;;;;;;;1999.90;999.90;;;3.70;99.90;;;;;;5052447;28;20443;-67
2022/12/03 03:15:52;;;;;;;1999.90;999.90;;;3.70;99.90;;;;;;5052062;28;20460;-67
2022/12/03 03:18:21;;;;;;;1999.90;999.90;;;3.70;99.90;;;;;;5052378;28;20452;-67
2022/12/03 03:20:47;;;;;;;1999.90;999.90;;;3.70;99.90;;;;;;5051946;28;20467;-67
2022/12/03 03:23:16;;;;;;;1999.90;999.90;;;3.70;99.90;;;;;;5052462;28;20451;-67
2022/12/03 03:25:46;;;;;;;1999.90;999.90;;;3.70;99.90;;;;;;5052258;28;20448;-67
2022/12/03 03:28:14;;;;;;;1999.90;999.90;;;3.70;99.90;;;;;;5051855;28;20440;-67
2022/12/03 03:30:43;;;;;;;1999.90;999.90;;;3.70;99.90;;;;;;5052226;28;21013;-67
2022/12/03 03:33:10;;;;;;;1999.90;999.90;;;3.80;99.90;;;;;;5052120;28;20544;-67
2022/12/03 03:35:39;;;;;;;1999.90;999.90;;;3.90;99.90;;;;;;5052068;28;20968;-67
2022/12/03 03:38:07;;;;;;;1999.90;999.90;;;3.90;99.90;;;;;;5051852;28;20448;-67
2022/12/03 03:40:34;;;;;;;1999.90;999.90;;;4.00;99.90;;;;;;5051686;28;20472;-67
2022/12/03 03:43:01;;;;;;;1999.90;999.90;;;4.10;99.90;;;;;;5051626;28;20452;-67
2022/12/03 03:45:28;;;;;;;1999.90;999.90;;;4.10;99.90;;;;;;5052147;28;20451;-67
2022/12/03 03:47:55;;;;;;;1999.90;999.90;;;4.10;99.90;;;;;;5051787;28;20952;-67
2022/12/03 03:50:22;;;;;;;1999.90;999.90;;;4.00;99.90;;;;;;5051601;28;20484;-67
2022/12/03 03:52:50;;;;;;;1999.90;999.90;;;3.90;99.90;;;;;;5051781;28;20448;-67
2022/12/03 03:55:19;;;;;;;1999.90;999.90;;;3.90;99.90;;;;;;5051460;28;20938;-67
2022/12/03 03:57:46;;;;;;;1999.90;999.90;;;3.80;99.90;;;;;;5051940;28;20462;-67
2022/12/03 04:00:14;;;;;;;1999.90;999.90;;;3.90;99.90;;;;;;5051398;28;20444;-67
2022/12/03 04:02:41;;;;;;;1999.90;999.90;;;3.90;99.90;;;;;;5051899;28;20452;-67
2022/12/03 04:05:14;;;;;;;1999.90;999.90;;;3.90;99.90;;;;;;5051344;28;20450;-67
2022/12/03 04:07:40;;;;;;;1999.90;999.90;;;3.90;99.90;;;;;;5051676;28;20440;-67
2022/12/03 04:12:54;;;;;;;1999.90;999.90;;;3.90;99.90;;;;;;5050703;28;20466;-67
2022/12/03 04:13:04;;;;;;;1999.90;999.90;;;4.00;99.90;;;;;;5051286;28;20464;-67
2022/12/03 04:15:31;;;;;;;1999.90;999.90;;;4.00;99.90;;;;;;5050553;28;20539;-67
2022/12/03 04:20:43;;;;;;;1999.90;999.90;;;4.00;99.90;;;;;;5051019;28;20570;-67
2022/12/03 04:23:09;;;;;;;1999.90;999.90;;;4.10;99.90;;;;;;5051425;28;20452;-67
2022/12/03 04:35:41;;;;;;;1999.90;999.90;;;4.00;99.90;;;;;;5050732;28;20564;-67
2022/12/03 04:36:35;;;;;;;1999.90;999.90;;;3.80;99.90;;;;;;5050534;28;20976;-67
2022/12/03 04:39:02;;;;;;;1999.90;999.90;;;3.80;99.90;;;;;;5050525;28;20447;-67
2022/12/03 04:41:30;;;;;;;1999.90;999.90;;;3.80;99.90;;;;;;5050843;28;20456;-67
2022/12/03 04:46:41;;;;;;;1999.90;999.90;;;3.80;99.90;;;;;;5050923;28;20487;-67
2022/12/03 04:49:08;;;;;;;1999.90;999.90;;;3.80;99.90;;;;;;5050575;28;20479;-67
2022/12/03 04:51:34;;;;;;;1999.90;999.90;;;3.80;99.90;;;;;;5050657;28;20479;-67
2022/12/03 04:54:01;;;;;;;1999.90;999.90;;;3.90;99.90;;;;;;5050909;28;20443;-67
2022/12/03 04:56:29;;;;;;;1999.90;999.90;;;3.90;99.90;;;;;;5050926;28;20432;-67
2022/12/03 04:58:56;;;;;;;1999.90;999.90;;;4.00;99.90;;;;;;5050309;28;20443;-67
2022/12/03 05:01:23;;;;;;;1999.90;999.90;;;4.10;99.90;;;;;;5050743;28;20812;-67
2022/12/03 05:03:50;;;;;;;1999.90;999.90;;;4.10;99.90;;;;;;5050526;28;20926;-67
2022/12/03 05:06:16;;;;;;;1999.90;999.90;;;4.20;99.90;;;;;;5050525;28;20446;-67
2022/12/03 05:08:43;;;;;;;1999.90;999.90;;;4.20;99.90;;;;;;5049868;28;20922;-67
2022/12/03 05:11:10;;;;;;;1999.90;999.90;;;4.20;99.90;;;;;;5050520;28;20861;-67
2022/12/03 05:13:38;;;;;;;1999.90;999.90;;;4.10;99.90;;;;;;5050427;28;21003;-67
2022/12/03 05:16:05;;;;;;;1999.90;999.90;;;4.10;99.90;;;;;;5050410;28;20474;-67
2022/12/03 05:18:32;;;;;;;1999.90;999.90;;;4.00;99.90;;;;;;5050153;28;20451;-67
2022/12/03 05:20:59;;;;;;;1999.90;999.90;;;3.90;99.90;;;;;;5050063;28;20460;-67
2022/12/03 05:23:25;;;;;;;1999.90;999.90;;;3.90;99.90;;;;;;5050157;28;20498;-66
2022/12/03 05:25:52;;;;;;;1999.90;999.90;;;3.90;99.90;;;;;;5049636;28;20440;-67
2022/12/03 05:28:21;;;;;;;1999.90;999.90;;;3.80;99.90;;;;;;5049696;28;20446;-67
2022/12/03 05:30:50;;;;;;;1999.90;999.90;;;3.80;99.90;;;;;;5049997;28;20479;-67
2022/12/03 05:33:16;;;;;;;1999.90;999.90;;;3.80;99.90;;;;;;5050039;28;20955;-67
2022/12/03 05:35:43;;;;;;;1999.90;999.90;;;3.90;99.90;;;;;;5049709;28;20972;-67
2022/12/03 05:38:10;;;;;;;1999.90;999.90;;;3.80;99.90;;;;;;5049958;28;20819;-68
2022/12/03 05:40:37;;;;;;;1999.90;999.90;;;3.80;99.90;;;;;;5049666;28;21203;-68
2022/12/03 05:43:02;;;;;;;1999.90;999.90;;;3.80;99.90;;;;;;5049965;28;20794;-68
2022/12/03 05:45:31;;;;;;;1999.90;999.90;;;3.70;99.90;;;;;;5050256;28;20447;-68
2022/12/03 05:48:00;;;;;;;1999.90;999.90;;;3.70;99.90;;;;;;5049718;28;20193;-68
2022/12/03 05:50:30;;;;;;;1999.90;999.90;;;3.70;99.90;;;;;;5049929;28;21047;-68
2022/12/03 05:52:57;;;;;;;1999.90;999.90;;;3.70;99.90;;;;;;5049851;28;20442;-68
2022/12/03 05:55:24;;;;;;;1999.90;999.90;;;3.70;99.90;;;;;;5049778;28;20444;-68
2022/12/03 05:57:51;;;;;;;1999.90;999.90;;;3.60;99.90;;;;;;5049393;28;20440;-68
2022/12/03 06:00:20;;;;;;;1999.90;999.90;;;3.60;99.90;;;;;;5049302;28;20460;-67
2022/12/03 06:02:47;;;;;;;1999.90;999.90;;;3.60;99.90;;;;;;5049252;28;20447;-67
2022/12/03 06:05:18;;;;;;;1999.90;999.90;;;3.60;99.90;;;;;;5049781;28;20475;-67
2022/12/03 06:07:45;;;;;;;1999.90;999.90;;;3.60;99.90;;;;;;5049623;28;20452;-67
2022/12/03 06:10:14;;;;;;;1999.90;999.90;;;3.60;99.90;;;;;;5049164;28;20444;-67
2022/12/03 06:12:41;;;;;;;1999.90;999.90;;;3.60;99.90;;;;;;5049585;28;20490;-67
2022/12/03 06:15:09;;;;;;;1999.90;999.90;;;3.70;99.90;;;;;;5049186;28;20462;-67
2022/12/03 06:17:36;;;;;;;1999.90;999.90;;;3.70;99.90;;;;;;5049397;28;20527;-67
2022/12/03 06:20:03;;;;;;;1999.90;999.90;;;3.80;99.90;;;;;;5048875;28;20448;-66
2022/12/03 06:22:31;;;;;;;1999.90;999.90;;;3.80;99.90;;;;;;5049245;28;20447;-67
2022/12/03 06:24:58;;;;;;;1999.90;999.90;;;3.70;99.90;;;;;;5049127;28;20451;-67
2022/12/03 06:27:25;;;;;;;1999.90;999.90;;;3.80;99.90;;;;;;5049411;28;20456;-67
2022/12/03 06:29:52;;;;;;;1999.90;999.90;;;3.80;99.90;;;;;;5048692;28;20463;-67
2022/12/03 06:32:18;;;;;;;1999.90;999.90;;;3.80;99.90;;;;;;5049365;28;20484;-67
2022/12/03 06:34:45;;;;;;;1999.90;999.90;;;3.90;99.90;;;;;;5030197;28;20455;-67
2022/12/03 06:37:12;;;;;;;1999.90;999.90;;;3.90;99.90;;;;;;5049578;28;20447;-66
2022/12/03 06:39:40;;;;;;;1999.90;999.90;;;3.90;99.90;;;;;;5053079;28;20455;-68
2022/12/03 06:42:07;;;;;;;1999.90;999.90;;;3.80;99.90;;;;;;5050655;28;21021;-67
2022/12/03 06:44:33;;;;;;;1999.90;999.90;;;3.90;99.90;;;;;;5052779;28;20934;-67
2022/12/03 06:47:00;;;;;;;1999.90;999.90;;;3.80;99.90;;;;;;5052986;28;20448;-67
2022/12/03 06:49:27;;;;;;;1999.90;999.90;;;3.90;99.90;;;;;;5052733;28;20450;-68
2022/12/03 06:51:54;;;;;;;1999.90;999.90;;;4.00;99.90;;;;;;5052461;28;20491;-67
2022/12/03 06:54:21;;;;;;;1999.90;999.90;;;4.00;99.90;;;;;;5052962;28;21016;-68
2022/12/03 06:56:49;;;;;;;1999.90;999.90;;;4.10;99.90;;;;;;5052445;28;20448;-69
2022/12/03 06:59:16;;;;;;;1999.90;999.90;;;4.20;99.90;;;;;;5052705;28;20447;-69
2022/12/03 07:01:43;;;;;;;1999.90;999.90;;;4.30;99.90;;;;;;5052914;28;20842;-69
2022/12/03 07:04:09;;;;;;;1999.90;999.90;;;4.30;99.90;;;;;;5052894;28;20447;-68
2022/12/03 07:06:36;;;;;;;1999.90;999.90;;;4.40;99.90;;;;;;5052873;28;20448;-69
2022/12/03 07:09:03;;;;;;;1999.90;999.90;;;4.40;99.90;;;;;;5052280;28;20440;-69
2022/12/03 07:11:38;;;;;;;1999.90;999.90;;;4.40;99.90;;;;;;5052321;28;20494;-69
2022/12/03 07:14:09;;;;;;;1999.90;999.90;;;4.40;99.90;;;;;;5052282;28;20458;-69
2022/12/03 07:16:36;;;;;;;1999.90;999.90;;;4.40;99.90;;;;;;5052573;28;20959;-69
2022/12/03 07:19:04;;;;;;;1999.90;999.90;;;4.30;99.90;;;;;;5051982;28;20840;-69
2022/12/03 07:21:31;;;;;;;1999.90;999.90;;;4.20;99.90;;;;;;5051820;28;20582;-69
2022/12/03 07:23:57;;;;;;;1999.90;999.90;;;4.10;99.90;;;;;;5052011;28;20451;-70
2022/12/03 07:26:24;;;;;;;1999.90;999.90;;;4.00;99.90;;;;;;5052499;28;20444;-69
2022/12/03 07:28:51;;;;;;;1999.90;999.90;;;4.00;99.90;;;;;;5052219;28;20454;-68
2022/12/03 07:31:19;;;;;;;1999.90;999.90;;;4.10;99.90;;;;;;5051761;28;20486;-68
2022/12/03 07:33:46;;;;;;;1999.90;999.90;;;4.20;99.90;;;;;;5052043;28;20929;-68
2022/12/03 07:36:13;;;;;;;1999.90;999.90;;;4.20;99.90;;;;;;5051690;28;20448;-69
2022/12/03 07:38:40;;;;;;;1999.90;999.90;;;4.30;99.90;;;;;;5051797;28;20444;-69
2022/12/03 07:41:07;;;;;;;1999.90;999.90;;;4.40;99.90;;;;;;5050747;28;21021;-69
2022/12/03 07:43:33;;;;;;;1999.90;999.90;;;4.50;99.90;;;;;;5051465;28;20941;-69
2022/12/03 07:46:00;;;;;;;1999.90;999.90;;;4.60;99.90;;;;;;5052134;28;20448;-67
2022/12/03 07:48:28;;;;;;;1999.90;999.90;;;4.60;99.90;;;;;;5050716;28;20452;-68
2022/12/03 07:50:55;;;;;;;1999.90;999.90;;;4.60;99.90;;;;;;5050654;28;20471;-68
2022/12/03 07:53:22;;;;;;;1999.90;999.90;;;4.60;99.90;;;;;;5052061;28;20491;-68
2022/12/03 07:55:48;;;;;;;1999.90;999.90;;;4.70;99.90;;;;;;5051965;28;20452;-68
2022/12/03 07:58:15;;;;;;;1999.90;999.90;;;4.80;99.90;;;;;;5051712;28;20514;-69
2022/12/03 08:00:42;;;;;;;1999.90;999.90;;;4.80;99.90;;;;;;5051762;28;20842;-68
2022/12/03 08:03:09;;;;;;;1999.90;999.90;;;4.90;99.90;;;;;;5050640;28;20448;-68
2022/12/03 08:05:37;;;;;;;1999.90;999.90;;;5.00;99.90;;;;;;5051855;28;20440;-69
2022/12/03 08:08:04;;;;;;;1999.90;999.90;;;5.00;99.90;;;;;;5051251;28;20444;-68
2022/12/03 08:10:31;;;;;;;1999.90;999.90;;;5.00;99.90;;;;;;5051120;28;20480;-69
2022/12/03 08:12:59;;;;;;;1999.90;999.90;;;5.10;99.90;;;;;;5051061;28;20571;-70
2022/12/03 08:15:28;;;;;;;1999.90;999.90;;;5.00;99.90;;;;;;5051308;28;20448;-68
2022/12/03 08:17:57;;;;;;;1999.90;999.90;;;5.00;99.90;;;;;;5050888;28;20456;-69
2022/12/03 08:20:26;;;;;;;1999.90;999.90;;;5.00;99.90;;;;;;5051216;28;20472;-69
2022/12/03 08:22:55;;;;;;;1999.90;999.90;;;5.00;99.90;;;;;;5051075;28;20444;-68
2022/12/03 08:25:24;;;;;;;1999.90;999.90;;;5.10;99.90;;;;;;5051121;28;20810;-69
2022/12/03 08:27:53;;;;;;;1999.90;999.90;;;5.10;99.90;;;;;;5051053;28;20451;-69
2022/12/03 08:30:20;;;;;;;1999.90;999.90;;;5.20;99.90;;;;;;5050309;28;20468;-69
2022/12/03 08:32:48;;;;;;;1999.90;999.90;;;5.20;99.90;;;;;;5051143;28;20574;-68
2022/12/03 08:35:21;;;;;;;1999.90;999.90;;;5.30;99.90;;;;;;5050797;28;20459;-69
2022/12/03 08:37:50;;;;;;;1999.90;999.90;;;5.10;99.90;;;;;;5051027;28;20815;-69
2022/12/03 08:40:23;;;;;;;1999.90;999.90;;;5.20;99.90;;;;;;5049969;28;20475;-69
2022/12/03 08:42:50;;;;;;;1999.90;999.90;;;5.30;99.90;;;;;;5050787;28;20447;-69
2022/12/03 08:45:41;;;;;;;1999.90;999.90;;;5.30;99.90;;;;;;5050682;28;20824;-69
2022/12/03 08:48:24;;;;;;;1999.90;999.90;;;5.30;99.90;;;;;;5048187;28;20479;-67
2022/12/03 08:50:51;;;;;;;1999.90;999.90;;;5.30;99.90;;;;;;5050361;28;20984;-68
2022/12/03 08:53:28;;;;;;;1999.90;999.90;;;5.30;99.90;;;;;;5050259;28;20480;-68
2022/12/03 08:55:59;;;;;;;1999.90;999.90;;;5.30;99.90;;;;;;5049606;28;20455;-68
2022/12/03 08:58:33;;;;;;;1999.90;999.90;;;5.40;99.90;;;;;;5050016;28;20451;-68
2022/12/03 09:01:12;;;;;;;1999.90;999.90;;;5.40;99.90;;;;;;5049724;28;20472;-68
2022/12/03 09:03:43;;;;;;;1999.90;999.90;;;5.40;99.90;;;;;;5049926;28;20941;-68
2022/12/03 09:06:10;;;;;;;1999.90;999.90;;;5.30;99.90;;;;;;5050231;28;20444;-69
2022/12/03 09:08:37;;;;;;;1999.90;999.90;;;5.40;99.90;;;;;;5048296;28;20435;-68
2022/12/03 09:11:05;;;;;;;1999.90;999.90;;;5.30;99.90;;;;;;5048622;28;20471;-68
2022/12/03 09:13:32;;;;;;;1999.90;999.90;;;5.40;99.90;;;;;;5048481;28;21056;-68
2022/12/03 09:15:59;;;;;;;1999.90;999.90;;;5.30;99.90;;;;;;5048826;28;20446;-67
2022/12/03 09:18:26;;;;;;;1999.90;999.90;;;5.40;99.90;;;;;;5047773;28;21012;-69
2022/12/03 09:20:53;;;;;;;1999.90;999.90;;;5.30;99.90;;;;;;5048419;28;20464;-67
2022/12/03 09:23:19;;;;;;;1999.90;999.90;;;5.20;99.90;;;;;;5049674;28;20810;-67
2022/12/03 09:25:46;;;;;;;1999.90;999.90;;;5.10;99.90;;;;;;5050017;28;20448;-68
2022/12/03 09:28:14;;;;;;;1999.90;999.90;;;5.00;99.90;;;;;;5049949;28;20806;-66
2022/12/03 09:30:41;;;;;;;1999.90;999.90;;;5.10;99.90;;;;;;5050141;28;20491;-68
2022/12/03 09:33:09;;;;;;;1999.90;999.90;;;5.00;99.90;;;;;;5050083;28;20483;-66
2022/12/03 09:35:36;;;;;;;1999.90;999.90;;;4.90;99.90;;;;;;5050072;28;20479;-68
2022/12/03 09:38:02;;;;;;;1999.90;999.90;;;5.00;99.90;;;;;;5050161;28;20451;-67
2022/12/03 09:40:29;;;;;;;1999.90;999.90;;;4.90;99.90;;;;;;5049575;28;20468;-69
2022/12/03 09:42:57;;;;;;;1999.90;999.90;;;5.00;99.90;;;;;;5049851;28;20440;-70
2022/12/03 09:45:25;;;;;;;1999.90;999.90;;;5.00;99.90;;;;;;5049826;28;20463;-68
2022/12/03 09:47:52;;;;;;;1999.90;999.90;;;5.00;99.90;;;;;;5049661;28;20938;-71
2022/12/03 09:50:22;;;;;;;1999.90;999.90;;;5.00;99.90;;;;;;5049581;28;20474;-69
2022/12/03 09:52:50;;;;;;;1999.90;999.90;;;5.00;99.90;;;;;;5049850;28;20479;-69
2022/12/03 09:55:21;;;;;;;1999.90;999.90;;;5.00;99.90;;;;;;5049782;28;20446;-69
2022/12/03 09:57:48;;;;;;;1999.90;999.90;;;4.90;99.90;;;;;;5049670;28;20447;-69
2022/12/03 10:00:17;;;;;;;1999.90;999.90;;;4.90;99.90;;;;;;5049307;28;20444;-67
2022/12/03 10:02:46;;;;;;;1999.90;999.90;;;5.00;99.90;;;;;;5049492;28;21081;-67
2022/12/03 10:05:14;;;;;;;1999.90;999.90;;;5.10;99.90;;;;;;5049216;28;20444;-67
2022/12/03 10:07:41;;;;;;;1999.90;999.90;;;5.10;99.90;;;;;;5049589;28;20451;-68
2022/12/03 10:10:15;;;;;;;1999.90;999.90;;;5.20;99.90;;;;;;5049147;28;20448;-66
2022/12/03 10:12:42;;;;;;;1999.90;999.90;;;5.30;99.90;;;;;;5050484;28;20479;-67
2022/12/03 10:15:12;;;;;;;1999.90;999.90;;;5.50;99.90;;;;;;5048228;28;20922;-67
2022/12/03 10:17:39;;;;;;;1999.90;999.90;;;5.60;99.90;;;;;;5052203;28;20456;-67
2022/12/03 10:20:12;;;;;;;1999.90;999.90;;;5.60;99.90;;;;;;5052525;28;20811;-67
2022/12/03 10:22:39;;;;;;;1999.90;999.90;;;5.60;99.90;;;;;;5052482;28;20440;-68
2022/12/03 10:25:08;;;;;;;1999.90;999.90;;;5.70;99.90;;;;;;5052557;28;20470;-67
2022/12/03 10:27:35;;;;;;;1999.90;999.90;;;5.80;99.90;;;;;;5036850;28;20445;-69
2022/12/03 10:30:05;;;;;;;1999.90;999.90;;;5.70;99.90;;;;;;5032567;28;20806;-68
2022/12/03 10:32:40;;;;;;;1999.90;999.90;;;5.60;99.90;;;;;;5032427;28;20540;-68
2022/12/03 10:35:12;;;;;;;1999.90;999.90;;;5.60;99.90;;;;;;5032422;28;21072;-69
2022/12/03 10:37:57;;;;;;;1999.90;999.90;;;5.60;99.90;;;;;;5032610;28;20449;-67
2022/12/03 10:40:25;;;;;;;1999.90;999.90;;;5.50;99.90;;;;;;5032048;28;20464;-67
2022/12/03 10:42:52;;;;;;;1999.90;999.90;;;5.50;99.90;;;;;;5032459;28;20445;-67
2022/12/03 10:45:21;;;;;;;1999.90;999.90;;;5.40;99.90;;;;;;5044339;28;20447;-68
2022/12/03 10:48:10;;;;;;;1999.90;999.90;;;5.50;99.90;;;;;;5051202;28;20447;-68
2022/12/03 10:50:46;;;;;;;1999.90;999.90;;;5.50;99.90;;;;;;5051277;28;21004;-67
2022/12/03 10:53:12;;;;;;;1999.90;999.90;;;5.50;99.90;;;;;;5051342;28;20475;-68
2022/12/03 10:55:42;;;;;;;1999.90;999.90;;;5.50;99.90;;;;;;5051534;28;20836;-67
2022/12/03 10:58:18;;;;;;;1999.90;999.90;;;5.40;99.90;;;;;;5051286;28;20444;-69
2022/12/03 11:00:45;;;;;;;1999.90;999.90;;;5.40;99.90;;;;;;5036023;28;20468;-67
2022/12/03 11:03:18;;;;;;;1999.90;999.90;;;5.40;99.90;;;;;;5051357;28;20455;-67
2022/12/03 11:05:47;;;;;;;1999.90;999.90;;;5.40;99.90;;;;;;5051711;28;20455;-67
2022/12/03 11:08:19;;;;;;;1999.90;999.90;;;5.30;99.90;;;;;;5050949;28;20451;-68
2022/12/03 11:10:55;;;;;;;1999.90;999.90;;;5.30;99.90;;;;;;5051797;28;20475;-68
2022/12/03 11:13:48;;;;;;;1999.90;999.90;;;5.20;99.90;;;;;;5050997;28;20471;-66
2022/12/03 11:17:08;;;;;;;1999.90;999.90;;;5.30;99.90;;;;;;5051168;28;20934;-69
2022/12/03 11:19:47;;;;;;;1999.90;999.90;;;5.20;99.90;;;;;;5051164;28;20471;-68
2022/12/03 11:22:28;;;;;;;1999.90;999.90;;;5.20;99.90;;;;;;5051250;28;20471;-68
2022/12/03 11:25:49;;;;;;;1999.90;999.90;;;5.10;99.90;;;;;;5049162;28;21191;-68
2022/12/03 11:28:53;;;;;;;1999.90;999.90;;;5.20;99.90;;;;;;5050800;28;20555;-69
2022/12/03 11:31:42;;;;;;;1999.90;999.90;;;5.20;99.90;;;;;;5050536;28;20985;-69
2022/12/03 11:34:55;;;;;;;1999.90;999.90;;;5.20;99.90;;;;;;5051140;28;20480;-68
2022/12/03 11:37:28;;;;;;;1999.90;999.90;;;5.20;99.90;;;;;;5039924;28;20436;-69
2022/12/03 11:40:31;;;;;;;1999.90;999.90;;;5.20;99.90;;;;;;5050503;28;20444;-67
2022/12/03 11:42:58;;;;;;;1999.90;999.90;;;5.10;99.90;;;;;;5036537;28;20443;-67
2022/12/03 11:45:32;;;;;;;1999.90;999.90;;;5.20;99.90;;;;;;5050775;28;20443;-67
2022/12/03 11:48:10;;;;;;;1999.90;999.90;;;5.10;99.90;;;;;;5050054;28;20439;-67
2022/12/03 11:50:39;;;;;;;1999.90;999.90;;;5.00;99.90;;;;;;5049847;28;20525;-68
2022/12/03 11:53:15;;;;;;;1999.90;999.90;;;5.00;99.90;;;;;;5037810;28;20475;-68
2022/12/03 11:55:45;;;;;;;1999.90;999.90;;;4.90;99.90;;;;;;5042043;28;20452;-68
2022/12/03 11:58:17;;;;;;;1999.90;999.90;;;4.90;99.90;;;;;;5046720;28;20444;-68
2022/12/03 12:00:49;;;;;;;1999.90;999.90;;;5.00;99.90;;;;;;5036531;28;20463;-67
2022/12/03 12:03:22;;;;;;;1999.90;999.90;;;5.00;99.90;;;;;;5056822;28;20435;-67
2022/12/03 12:06:04;;;;;;;1999.90;999.90;;;5.00;99.90;;;;;;5049816;28;20448;-68
2022/12/03 12:08:32;;;;;;;1999.90;999.90;;;5.00;99.90;;;;;;5048857;28;20451;-70
2022/12/03 12:11:00;;;;;;;1999.90;999.90;;;5.00;99.90;;;;;;5042950;28;20459;-69
2022/12/03 12:13:54;;;;;;;1999.90;999.90;;;5.10;99.90;;;;;;5050831;28;20475;-67
2022/12/03 12:16:42;;;;;;;1999.90;999.90;;;5.10;99.90;;;;;;5050772;28;20448;-67
2022/12/03 12:19:32;;;;;;;1999.90;999.90;;;5.10;99.90;;;;;;5050971;28;20450;-68
2022/12/03 12:22:20;;;;;;;1999.90;999.90;;;5.00;99.90;;;;;;5051038;28;20471;-67
2022/12/03 12:24:51;;;;;;;1999.90;999.90;;;5.10;99.90;;;;;;5036100;28;20879;-68
2022/12/03 12:27:20;;;;;;;1999.90;999.90;;;5.10;99.90;;;;;;5050971;28;20455;-67
2022/12/03 12:29:52;;;;;;;1999.90;999.90;;;5.20;99.90;;;;;;5049839;28;20476;-68
2022/12/03 12:32:23;;;;;;;1999.90;999.90;;;5.30;99.90;;;;;;5050836;28;20460;-67
2022/12/03 12:34:52;;;;;;;1999.90;999.90;;;5.30;99.90;;;;;;5051178;28;20820;-68
2022/12/03 12:37:23;;;;;;;1999.90;999.90;;;5.30;99.90;;;;;;5049922;28;20455;-68